sensor_id;sensor_type;location;lat;lon;timestamp;pressure;altitude;pressure_sealevel;temperature;humidity
77017;BME280;65949;53.132;17.930;2023-08-06T00:00:30;100297.20;;;15.08;90.85
77017;BME280;65949;53.132;17.930;2023-08-06T00:03:16;100288.52;;;15.04;90.96
77017;BME280;65949;53.132;17.930;2023-08-06T00:05:43;100290.91;;;15.01;91.12
77017;BME280;65949;53.132;17.930;2023-08-06T00:08:10;100289.97;;;14.98;91.41
77017;BME280;65949;53.132;17.930;2023-08-06T00:10:36;100280.34;;;14.94;91.41
77017;BME280;65949;53.132;17.930;2023-08-06T00:13:03;100269.42;;;14.91;91.33
77017;BME280;65949;53.132;17.930;2023-08-06T00:15:29;100250.91;;;14.90;91.31
77017;BME280;65949;53.132;17.930;2023-08-06T00:17:56;100244.67;;;14.90;91.47
77017;BME280;65949;53.132;17.930;2023-08-06T00:20:22;100241.77;;;14.87;91.83
77017;BME280;65949;53.132;17.930;2023-08-06T00:22:49;100240.70;;;14.83;91.92
77017;BME280;65949;53.132;17.930;2023-08-06T00:25:15;100240.73;;;14.81;91.89
77017;BME280;65949;53.132;17.930;2023-08-06T00:27:42;100241.40;;;14.80;92.18
77017;BME280;65949;53.132;17.930;2023-08-06T00:30:09;100244.09;;;14.78;92.38
77017;BME280;65949;53.132;17.930;2023-08-06T00:32:35;100234.70;;;14.78;92.54
77017;BME280;65949;53.132;17.930;2023-08-06T00:35:02;100223.60;;;14.77;92.37
77017;BME280;65949;53.132;17.930;2023-08-06T00:37:29;100220.48;;;14.77;92.28
77017;BME280;65949;53.132;17.930;2023-08-06T00:39:56;100219.84;;;14.79;92.34
77017;BME280;65949;53.132;17.930;2023-08-06T00:42:22;100213.20;;;14.81;92.36
77017;BME280;65949;53.132;17.930;2023-08-06T00:44:51;100204.19;;;14.82;92.67
77017;BME280;65949;53.132;17.930;2023-08-06T00:47:17;100197.91;;;14.84;92.45
77017;BME280;65949;53.132;17.930;2023-08-06T00:49:45;100193.73;;;14.85;92.34
77017;BME280;65949;53.132;17.930;2023-08-06T00:52:12;100193.27;;;14.88;92.51
77017;BME280;65949;53.132;17.930;2023-08-06T00:54:40;100194.62;;;14.89;92.36
77017;BME280;65949;53.132;17.930;2023-08-06T00:57:07;100185.39;;;14.92;92.66
77017;BME280;65949;53.132;17.930;2023-08-06T00:59:35;100173.02;;;14.93;92.45
77017;BME280;65949;53.132;17.930;2023-08-06T01:02:02;100158.20;;;14.95;92.52
77017;BME280;65949;53.132;17.930;2023-08-06T01:04:29;100151.02;;;14.97;92.41
77017;BME280;65949;53.132;17.930;2023-08-06T01:07:03;100142.98;;;14.97;92.64
77017;BME280;65949;53.132;17.930;2023-08-06T01:12:34;100129.83;;;14.98;92.51
77017;BME280;65949;53.132;17.930;2023-08-06T01:15:23;100113.66;;;14.99;92.58
77017;BME280;65949;53.132;17.930;2023-08-06T01:17:51;100110.98;;;14.99;92.89
77017;BME280;65949;53.132;17.930;2023-08-06T01:20:18;100099.54;;;14.99;92.87
77017;BME280;65949;53.132;17.930;2023-08-06T01:22:45;100093.20;;;14.98;93.36
77017;BME280;65949;53.132;17.930;2023-08-06T01:25:15;100068.02;;;14.96;93.43
77017;BME280;65949;53.132;17.930;2023-08-06T01:27:46;100051.70;;;14.96;93.84
77017;BME280;65949;53.132;17.930;2023-08-06T01:30:25;100047.67;;;14.94;93.78
77017;BME280;65949;53.132;17.930;2023-08-06T01:33:00;100038.42;;;14.94;93.57
77017;BME280;65949;53.132;17.930;2023-08-06T01:35:30;100038.10;;;14.95;93.32
77017;BME280;65949;53.132;17.930;2023-08-06T01:37:59;100031.55;;;14.97;93.41
77017;BME280;65949;53.132;17.930;2023-08-06T01:40:27;100032.65;;;15.00;93.19
77017;BME280;65949;53.132;17.930;2023-08-06T01:42:54;100028.23;;;15.03;93.20
77017;BME280;65949;53.132;17.930;2023-08-06T01:45:21;100021.80;;;15.04;93.29
77017;BME280;65949;53.132;17.930;2023-08-06T01:47:49;100019.73;;;15.05;93.30
77017;BME280;65949;53.132;17.930;2023-08-06T01:50:15;100013.90;;;15.05;93.02
77017;BME280;65949;53.132;17.930;2023-08-06T01:52:42;100005.20;;;15.07;93.28
77017;BME280;65949;53.132;17.930;2023-08-06T01:55:08;99998.45;;;15.06;93.20
77017;BME280;65949;53.132;17.930;2023-08-06T01:57:35;99990.82;;;15.07;93.14
77017;BME280;65949;53.132;17.930;2023-08-06T02:00:02;99983.75;;;15.08;93.07
77017;BME280;65949;53.132;17.930;2023-08-06T02:02:39;99979.05;;;15.07;93.37
77017;BME280;65949;53.132;17.930;2023-08-06T02:05:07;99975.77;;;15.06;93.26
77017;BME280;65949;53.132;17.930;2023-08-06T02:07:33;99969.97;;;15.05;93.28
77017;BME280;65949;53.132;17.930;2023-08-06T02:10:00;99961.30;;;15.05;93.24
77017;BME280;65949;53.132;17.930;2023-08-06T02:12:27;99947.84;;;15.04;93.40
77017;BME280;65949;53.132;17.930;2023-08-06T02:14:53;99931.90;;;15.03;93.29
77017;BME280;65949;53.132;17.930;2023-08-06T02:17:20;99915.76;;;15.02;93.26
77017;BME280;65949;53.132;17.930;2023-08-06T02:19:46;99902.82;;;15.03;93.41
77017;BME280;65949;53.132;17.930;2023-08-06T02:22:13;99888.63;;;15.02;93.55
77017;BME280;65949;53.132;17.930;2023-08-06T02:24:39;99880.48;;;15.00;93.23
77017;BME280;65949;53.132;17.930;2023-08-06T02:27:06;99879.70;;;15.00;93.38
77017;BME280;65949;53.132;17.930;2023-08-06T02:29:33;99875.41;;;14.98;93.33
77017;BME280;65949;53.132;17.930;2023-08-06T02:32:00;99878.05;;;14.99;93.46
77017;BME280;65949;53.132;17.930;2023-08-06T02:34:28;99877.46;;;14.97;93.57
77017;BME280;65949;53.132;17.930;2023-08-06T02:36:55;99879.23;;;14.96;93.35
77017;BME280;65949;53.132;17.930;2023-08-06T02:39:21;99886.71;;;14.96;93.43
77017;BME280;65949;53.132;17.930;2023-08-06T02:41:48;99884.15;;;14.96;93.39
77017;BME280;65949;53.132;17.930;2023-08-06T02:44:15;99887.34;;;14.95;93.45
77017;BME280;65949;53.132;17.930;2023-08-06T02:46:41;99887.51;;;14.94;93.41
77017;BME280;65949;53.132;17.930;2023-08-06T02:49:08;99881.37;;;14.94;93.29
77017;BME280;65949;53.132;17.930;2023-08-06T02:51:35;99875.77;;;14.95;93.83
77017;BME280;65949;53.132;17.930;2023-08-06T02:54:01;99872.52;;;14.93;93.70
77017;BME280;65949;53.132;17.930;2023-08-06T02:56:28;99877.56;;;14.93;93.44
77017;BME280;65949;53.132;17.930;2023-08-06T02:59:03;99877.67;;;14.95;93.50
77017;BME280;65949;53.132;17.930;2023-08-06T03:01:47;99875.20;;;14.95;93.49
77017;BME280;65949;53.132;17.930;2023-08-06T03:04:18;99878.96;;;14.96;93.67
77017;BME280;65949;53.132;17.930;2023-08-06T03:06:45;99876.88;;;14.95;93.51
77017;BME280;65949;53.132;17.930;2023-08-06T03:09:12;99878.45;;;14.97;93.54
77017;BME280;65949;53.132;17.930;2023-08-06T03:11:39;99870.28;;;14.99;93.42
77017;BME280;65949;53.132;17.930;2023-08-06T03:14:08;99873.08;;;15.01;93.29
77017;BME280;65949;53.132;17.930;2023-08-06T03:16:36;99873.60;;;15.02;93.18
77017;BME280;65949;53.132;17.930;2023-08-06T03:19:03;99876.98;;;15.04;93.21
77017;BME280;65949;53.132;17.930;2023-08-06T03:21:30;99886.66;;;15.05;92.98
77017;BME280;65949;53.132;17.930;2023-08-06T03:23:57;99883.23;;;15.06;93.02
77017;BME280;65949;53.132;17.930;2023-08-06T03:26:24;99878.02;;;15.06;93.09
77017;BME280;65949;53.132;17.930;2023-08-06T03:28:51;99876.48;;;15.07;92.93
77017;BME280;65949;53.132;17.930;2023-08-06T03:31:18;99872.69;;;15.08;93.08
77017;BME280;65949;53.132;17.930;2023-08-06T03:33:45;99866.16;;;15.08;92.87
77017;BME280;65949;53.132;17.930;2023-08-06T03:36:15;99853.91;;;15.09;92.95
77017;BME280;65949;53.132;17.930;2023-08-06T03:38:42;99843.09;;;15.10;93.14
77017;BME280;65949;53.132;17.930;2023-08-06T03:41:09;99830.39;;;15.08;93.63
77017;BME280;65949;53.132;17.930;2023-08-06T03:43:36;99818.95;;;15.04;93.75
77017;BME280;65949;53.132;17.930;2023-08-06T03:46:05;99798.17;;;14.99;94.31
77017;BME280;65949;53.132;17.930;2023-08-06T03:48:32;99785.02;;;14.94;94.85
77017;BME280;65949;53.132;17.930;2023-08-06T03:50:58;99775.08;;;14.90;95.26
77017;BME280;65949;53.132;17.930;2023-08-06T03:53:28;99761.11;;;14.87;95.54
77017;BME280;65949;53.132;17.930;2023-08-06T03:55:55;99749.13;;;14.84;95.75
77017;BME280;65949;53.132;17.930;2023-08-06T03:58:26;99731.16;;;14.83;96.02
77017;BME280;65949;53.132;17.930;2023-08-06T04:01:00;99715.85;;;14.82;96.02
77017;BME280;65949;53.132;17.930;2023-08-06T04:03:29;99700.23;;;14.82;96.11
77017;BME280;65949;53.132;17.930;2023-08-06T04:05:55;99679.95;;;14.81;96.56
77017;BME280;65949;53.132;17.930;2023-08-06T04:08:22;99666.80;;;14.80;96.35
77017;BME280;65949;53.132;17.930;2023-08-06T04:10:50;99672.30;;;14.82;96.00
77017;BME280;65949;53.132;17.930;2023-08-06T04:13:17;99676.14;;;14.86;95.88
77017;BME280;65949;53.132;17.930;2023-08-06T04:15:44;99664.48;;;14.88;95.77
77017;BME280;65949;53.132;17.930;2023-08-06T04:18:10;99653.02;;;14.91;95.62
77017;BME280;65949;53.132;17.930;2023-08-06T04:20:45;99656.84;;;14.93;95.57
77017;BME280;65949;53.132;17.930;2023-08-06T04:23:12;99667.28;;;14.95;95.45
77017;BME280;65949;53.132;17.930;2023-08-06T04:25:39;99665.80;;;14.97;95.38
77017;BME280;65949;53.132;17.930;2023-08-06T04:28:06;99665.58;;;15.00;94.96
77017;BME280;65949;53.132;17.930;2023-08-06T04:30:33;99664.25;;;15.02;95.12
77017;BME280;65949;53.132;17.930;2023-08-06T04:33:01;99659.14;;;15.05;95.00
77017;BME280;65949;53.132;17.930;2023-08-06T04:35:28;99660.29;;;15.07;94.82
77017;BME280;65949;53.132;17.930;2023-08-06T04:37:56;99661.62;;;15.10;94.89
77017;BME280;65949;53.132;17.930;2023-08-06T04:40:22;99660.51;;;15.12;94.77
77017;BME280;65949;53.132;17.930;2023-08-06T04:42:49;99660.58;;;15.13;94.80
77017;BME280;65949;53.132;17.930;2023-08-06T04:45:16;99664.84;;;15.16;94.78
77017;BME280;65949;53.132;17.930;2023-08-06T04:47:42;99669.54;;;15.19;94.61
77017;BME280;65949;53.132;17.930;2023-08-06T04:50:09;99657.10;;;15.21;94.51
77017;BME280;65949;53.132;17.930;2023-08-06T04:52:37;99637.25;;;15.25;94.52
77017;BME280;65949;53.132;17.930;2023-08-06T04:55:04;99624.20;;;15.26;94.83
77017;BME280;65949;53.132;17.930;2023-08-06T04:57:32;99594.55;;;15.26;95.05
77017;BME280;65949;53.132;17.930;2023-08-06T04:59:59;99590.41;;;15.25;95.11
77017;BME280;65949;53.132;17.930;2023-08-06T05:02:25;99586.83;;;15.26;95.26
77017;BME280;65949;53.132;17.930;2023-08-06T05:04:52;99562.48;;;15.27;95.29
77017;BME280;65949;53.132;17.930;2023-08-06T05:07:18;99551.18;;;15.27;95.53
77017;BME280;65949;53.132;17.930;2023-08-06T05:09:45;99551.64;;;15.27;95.60
77017;BME280;65949;53.132;17.930;2023-08-06T05:12:11;99570.05;;;15.28;95.52
77017;BME280;65949;53.132;17.930;2023-08-06T05:14:38;99578.64;;;15.31;95.46
77017;BME280;65949;53.132;17.930;2023-08-06T05:17:05;99595.44;;;15.34;95.52
77017;BME280;65949;53.132;17.930;2023-08-06T05:19:31;99592.64;;;15.36;95.40
77017;BME280;65949;53.132;17.930;2023-08-06T05:21:58;99586.83;;;15.39;95.38
77017;BME280;65949;53.132;17.930;2023-08-06T05:24:24;99585.14;;;15.43;95.33
77017;BME280;65949;53.132;17.930;2023-08-06T05:26:51;99582.59;;;15.46;95.82
77017;BME280;65949;53.132;17.930;2023-08-06T05:29:17;99576.35;;;15.50;96.10
77017;BME280;65949;53.132;17.930;2023-08-06T05:31:44;99580.98;;;15.51;96.13
77017;BME280;65949;53.132;17.930;2023-08-06T05:34:11;99586.14;;;15.54;95.94
77017;BME280;65949;53.132;17.930;2023-08-06T05:36:37;99591.21;;;15.56;95.92
77017;BME280;65949;53.132;17.930;2023-08-06T05:39:04;99596.52;;;15.61;95.75
77017;BME280;65949;53.132;17.930;2023-08-06T05:41:30;99593.02;;;15.65;96.21
77017;BME280;65949;53.132;17.930;2023-08-06T05:43:57;99592.88;;;15.69;96.10
77017;BME280;65949;53.132;17.930;2023-08-06T05:46:23;99592.77;;;15.72;95.98
77017;BME280;65949;53.132;17.930;2023-08-06T05:48:50;99587.70;;;15.76;95.82
77017;BME280;65949;53.132;17.930;2023-08-06T05:51:17;99590.45;;;15.80;95.83
77017;BME280;65949;53.132;17.930;2023-08-06T05:53:44;99586.55;;;15.84;95.76
77017;BME280;65949;53.132;17.930;2023-08-06T05:56:13;99581.29;;;15.87;95.79
77017;BME280;65949;53.132;17.930;2023-08-06T05:58:40;99578.34;;;15.91;95.99
77017;BME280;65949;53.132;17.930;2023-08-06T06:01:07;99579.45;;;15.94;96.05
77017;BME280;65949;53.132;17.930;2023-08-06T06:03:33;99575.67;;;15.97;95.97
77017;BME280;65949;53.132;17.930;2023-08-06T06:06:03;99570.19;;;16.00;96.18
77017;BME280;65949;53.132;17.930;2023-08-06T06:08:29;99564.68;;;16.03;96.07
77017;BME280;65949;53.132;17.930;2023-08-06T06:10:56;99552.94;;;16.06;96.02
77017;BME280;65949;53.132;17.930;2023-08-06T06:13:23;99546.63;;;16.10;96.22
77017;BME280;65949;53.132;17.930;2023-08-06T06:15:49;99543.91;;;16.13;96.36
77017;BME280;65949;53.132;17.930;2023-08-06T06:18:16;99541.87;;;16.17;96.55
77017;BME280;65949;53.132;17.930;2023-08-06T06:20:42;99539.58;;;16.19;96.98
77017;BME280;65949;53.132;17.930;2023-08-06T06:23:09;99541.39;;;16.21;96.58
77017;BME280;65949;53.132;17.930;2023-08-06T06:25:36;99538.23;;;16.25;96.62
77017;BME280;65949;53.132;17.930;2023-08-06T06:28:02;99530.91;;;16.28;96.47
77017;BME280;65949;53.132;17.930;2023-08-06T06:30:29;99529.03;;;16.32;96.50
77017;BME280;65949;53.132;17.930;2023-08-06T06:32:55;99519.73;;;16.36;96.36
77017;BME280;65949;53.132;17.930;2023-08-06T06:35:22;99511.19;;;16.42;96.62
77017;BME280;65949;53.132;17.930;2023-08-06T06:37:48;99505.48;;;16.46;96.61
77017;BME280;65949;53.132;17.930;2023-08-06T06:40:15;99500.64;;;16.49;96.76
77017;BME280;65949;53.132;17.930;2023-08-06T06:42:42;99504.52;;;16.52;96.74
77017;BME280;65949;53.132;17.930;2023-08-06T06:45:09;99504.47;;;16.54;96.69
77017;BME280;65949;53.132;17.930;2023-08-06T06:47:36;99498.44;;;16.58;96.56
77017;BME280;65949;53.132;17.930;2023-08-06T06:50:02;99495.11;;;16.61;96.69
77017;BME280;65949;53.132;17.930;2023-08-06T06:52:29;99490.70;;;16.64;96.86
77017;BME280;65949;53.132;17.930;2023-08-06T06:54:56;99488.52;;;16.66;96.89
77017;BME280;65949;53.132;17.930;2023-08-06T06:57:22;99488.70;;;16.68;96.74
77017;BME280;65949;53.132;17.930;2023-08-06T06:59:49;99479.48;;;16.73;96.90
77017;BME280;65949;53.132;17.930;2023-08-06T07:02:16;99472.02;;;16.79;96.76
77017;BME280;65949;53.132;17.930;2023-08-06T07:04:43;99471.58;;;16.85;96.79
77017;BME280;65949;53.132;17.930;2023-08-06T07:07:09;99474.02;;;16.92;97.02
77017;BME280;65949;53.132;17.930;2023-08-06T07:09:36;99467.11;;;16.99;96.72
77017;BME280;65949;53.132;17.930;2023-08-06T07:12:03;99459.89;;;17.08;96.65
77017;BME280;65949;53.132;17.930;2023-08-06T07:14:30;99459.58;;;17.14;96.56
77017;BME280;65949;53.132;17.930;2023-08-06T07:16:57;99453.31;;;17.17;96.60
77017;BME280;65949;53.132;17.930;2023-08-06T07:19:23;99449.88;;;17.20;96.60
77017;BME280;65949;53.132;17.930;2023-08-06T07:21:50;99447.39;;;17.24;96.79
77017;BME280;65949;53.132;17.930;2023-08-06T07:24:17;99442.75;;;17.30;96.52
77017;BME280;65949;53.132;17.930;2023-08-06T07:26:43;99437.80;;;17.37;96.33
77017;BME280;65949;53.132;17.930;2023-08-06T07:29:10;99431.21;;;17.44;96.17
77017;BME280;65949;53.132;17.930;2023-08-06T07:31:38;99426.52;;;17.47;96.00
77017;BME280;65949;53.132;17.930;2023-08-06T07:34:05;99426.42;;;17.51;95.88
77017;BME280;65949;53.132;17.930;2023-08-06T07:36:31;99426.64;;;17.53;95.86
77017;BME280;65949;53.132;17.930;2023-08-06T07:38:59;99420.92;;;17.58;95.95
77017;BME280;65949;53.132;17.930;2023-08-06T07:41:26;99412.20;;;17.61;95.86
77017;BME280;65949;53.132;17.930;2023-08-06T07:43:52;99401.25;;;17.67;95.69
77017;BME280;65949;53.132;17.930;2023-08-06T07:46:20;99400.42;;;17.71;95.45
77017;BME280;65949;53.132;17.930;2023-08-06T07:48:47;99398.67;;;17.75;95.17
77017;BME280;65949;53.132;17.930;2023-08-06T07:51:13;99394.80;;;17.79;95.16
77017;BME280;65949;53.132;17.930;2023-08-06T07:53:40;99381.74;;;17.81;95.16
77017;BME280;65949;53.132;17.930;2023-08-06T07:56:07;99376.75;;;17.85;95.10
77017;BME280;65949;53.132;17.930;2023-08-06T07:58:34;99368.42;;;17.86;94.76
77017;BME280;65949;53.132;17.930;2023-08-06T08:01:00;99376.25;;;17.86;94.83
77017;BME280;65949;53.132;17.930;2023-08-06T08:03:27;99377.30;;;17.85;94.74
77017;BME280;65949;53.132;17.930;2023-08-06T08:05:55;99378.60;;;17.83;94.64
77017;BME280;65949;53.132;17.930;2023-08-06T08:08:25;99382.02;;;17.85;94.71
77017;BME280;65949;53.132;17.930;2023-08-06T08:10:51;99388.89;;;17.85;94.59
77017;BME280;65949;53.132;17.930;2023-08-06T08:13:18;99388.35;;;17.85;94.26
77017;BME280;65949;53.132;17.930;2023-08-06T08:15:45;99380.29;;;17.85;94.36
77017;BME280;65949;53.132;17.930;2023-08-06T08:18:12;99374.64;;;17.87;94.45
77017;BME280;65949;53.132;17.930;2023-08-06T08:20:39;99373.51;;;17.89;94.28
77017;BME280;65949;53.132;17.930;2023-08-06T08:23:06;99363.86;;;17.89;94.42
77017;BME280;65949;53.132;17.930;2023-08-06T08:25:32;99354.63;;;17.90;94.21
77017;BME280;65949;53.132;17.930;2023-08-06T08:28:00;99346.52;;;17.91;94.20
77017;BME280;65949;53.132;17.930;2023-08-06T08:30:27;99342.61;;;17.94;94.19
77017;BME280;65949;53.132;17.930;2023-08-06T08:32:53;99341.60;;;17.98;94.30
77017;BME280;65949;53.132;17.930;2023-08-06T08:35:20;99338.79;;;18.02;94.04
77017;BME280;65949;53.132;17.930;2023-08-06T08:37:47;99333.27;;;18.07;93.99
77017;BME280;65949;53.132;17.930;2023-08-06T08:40:15;99330.59;;;18.07;93.78
77017;BME280;65949;53.132;17.930;2023-08-06T08:42:42;99331.33;;;18.10;93.64
77017;BME280;65949;53.132;17.930;2023-08-06T08:45:13;99324.20;;;18.13;93.65
77017;BME280;65949;53.132;17.930;2023-08-06T08:47:42;99322.84;;;18.16;93.55
77017;BME280;65949;53.132;17.930;2023-08-06T08:50:10;99318.66;;;18.20;93.40
77017;BME280;65949;53.132;17.930;2023-08-06T08:52:40;99318.94;;;18.27;92.91
77017;BME280;65949;53.132;17.930;2023-08-06T08:55:08;99311.88;;;18.35;92.59
77017;BME280;65949;53.132;17.930;2023-08-06T08:57:35;99308.92;;;18.45;92.16
77017;BME280;65949;53.132;17.930;2023-08-06T09:00:03;99307.52;;;18.54;91.80
77017;BME280;65949;53.132;17.930;2023-08-06T09:02:32;99304.23;;;18.61;91.51
77017;BME280;65949;53.132;17.930;2023-08-06T09:05:01;99304.85;;;18.65;91.56
77017;BME280;65949;53.132;17.930;2023-08-06T09:07:51;99300.33;;;18.64;91.11
77017;BME280;65949;53.132;17.930;2023-08-06T09:10:19;99295.11;;;18.61;91.09
77017;BME280;65949;53.132;17.930;2023-08-06T09:12:51;99294.75;;;18.59;91.30
77017;BME280;65949;53.132;17.930;2023-08-06T09:15:17;99293.48;;;18.60;91.43
77017;BME280;65949;53.132;17.930;2023-08-06T09:17:44;99290.71;;;18.60;91.27
77017;BME280;65949;53.132;17.930;2023-08-06T09:20:14;99284.09;;;18.63;91.42
77017;BME280;65949;53.132;17.930;2023-08-06T09:22:41;99277.75;;;18.63;91.22
77017;BME280;65949;53.132;17.930;2023-08-06T09:25:08;99274.71;;;18.65;91.28
77017;BME280;65949;53.132;17.930;2023-08-06T09:27:40;99270.63;;;18.65;91.15
77017;BME280;65949;53.132;17.930;2023-08-06T09:30:07;99268.83;;;18.65;91.38
77017;BME280;65949;53.132;17.930;2023-08-06T09:32:47;99263.02;;;18.65;91.52
77017;BME280;65949;53.132;17.930;2023-08-06T09:35:18;99254.85;;;18.67;91.23
77017;BME280;65949;53.132;17.930;2023-08-06T09:37:45;99248.05;;;18.69;91.53
77017;BME280;65949;53.132;17.930;2023-08-06T09:40:29;99254.16;;;18.72;91.49
77017;BME280;65949;53.132;17.930;2023-08-06T09:42:57;99261.81;;;18.71;91.33
77017;BME280;65949;53.132;17.930;2023-08-06T09:45:30;99252.60;;;18.67;91.39
77017;BME280;65949;53.132;17.930;2023-08-06T09:47:59;99251.30;;;18.61;91.43
77017;BME280;65949;53.132;17.930;2023-08-06T09:50:31;99239.84;;;18.55;91.48
77017;BME280;65949;53.132;17.930;2023-08-06T09:52:59;99233.64;;;18.54;91.87
77017;BME280;65949;53.132;17.930;2023-08-06T09:55:26;99234.64;;;18.52;92.01
77017;BME280;65949;53.132;17.930;2023-08-06T09:57:53;99229.73;;;18.49;92.09
77017;BME280;65949;53.132;17.930;2023-08-06T10:00:22;99216.70;;;18.52;92.42
77017;BME280;65949;53.132;17.930;2023-08-06T10:02:50;99209.48;;;18.59;92.40
77017;BME280;65949;53.132;17.930;2023-08-06T10:05:21;99213.84;;;18.61;92.24
77017;BME280;65949;53.132;17.930;2023-08-06T10:07:50;99203.97;;;18.59;92.31
77017;BME280;65949;53.132;17.930;2023-08-06T10:10:19;99196.81;;;18.56;92.60
77017;BME280;65949;53.132;17.930;2023-08-06T10:12:49;99188.30;;;18.60;92.53
77017;BME280;65949;53.132;17.930;2023-08-06T10:15:21;99182.45;;;18.69;92.41
77017;BME280;65949;53.132;17.930;2023-08-06T10:17:51;99169.42;;;18.83;92.14
77017;BME280;65949;53.132;17.930;2023-08-06T10:20:20;99170.33;;;18.95;91.75
77017;BME280;65949;53.132;17.930;2023-08-06T10:23:00;99176.38;;;18.96;91.84
77017;BME280;65949;53.132;17.930;2023-08-06T10:25:30;99184.96;;;18.92;91.67
77017;BME280;65949;53.132;17.930;2023-08-06T10:27:58;99189.44;;;18.87;91.53
77017;BME280;65949;53.132;17.930;2023-08-06T10:30:34;99182.71;;;18.86;91.81
77017;BME280;65949;53.132;17.930;2023-08-06T10:33:07;99175.00;;;18.96;91.62
77017;BME280;65949;53.132;17.930;2023-08-06T10:35:37;99172.59;;;19.05;91.34
77017;BME280;65949;53.132;17.930;2023-08-06T10:38:09;99171.60;;;19.15;91.28
77017;BME280;65949;53.132;17.930;2023-08-06T10:40:39;99169.14;;;19.19;91.41
77017;BME280;65949;53.132;17.930;2023-08-06T10:43:07;99163.97;;;19.22;91.19
77017;BME280;65949;53.132;17.930;2023-08-06T10:45:36;99163.55;;;19.26;90.92
77017;BME280;65949;53.132;17.930;2023-08-06T10:48:04;99160.99;;;19.28;91.13
77017;BME280;65949;53.132;17.930;2023-08-06T10:50:32;99148.62;;;19.29;90.63
77017;BME280;65949;53.132;17.930;2023-08-06T10:53:03;99139.77;;;19.25;90.52
77017;BME280;65949;53.132;17.930;2023-08-06T10:55:31;99133.41;;;19.34;90.85
77017;BME280;65949;53.132;17.930;2023-08-06T10:57:58;99128.26;;;19.37;90.80
77017;BME280;65949;53.132;17.930;2023-08-06T11:00:25;99119.12;;;19.37;91.09
77017;BME280;65949;53.132;17.930;2023-08-06T11:02:52;99111.36;;;19.34;91.20
77017;BME280;65949;53.132;17.930;2023-08-06T11:05:19;99118.91;;;19.34;91.23
77017;BME280;65949;53.132;17.930;2023-08-06T11:07:46;99119.04;;;19.33;91.18
77017;BME280;65949;53.132;17.930;2023-08-06T11:10:14;99106.98;;;19.37;91.20
77017;BME280;65949;53.132;17.930;2023-08-06T11:12:41;99096.80;;;19.38;90.84
77017;BME280;65949;53.132;17.930;2023-08-06T11:15:08;99089.20;;;19.35;90.89
77017;BME280;65949;53.132;17.930;2023-08-06T11:17:35;99083.98;;;19.28;91.09
77017;BME280;65949;53.132;17.930;2023-08-06T11:20:03;99086.93;;;19.22;91.48
77017;BME280;65949;53.132;17.930;2023-08-06T11:22:31;99081.36;;;19.19;91.51
77017;BME280;65949;53.132;17.930;2023-08-06T11:24:58;99075.74;;;19.21;91.69
77017;BME280;65949;53.132;17.930;2023-08-06T11:27:26;99073.85;;;19.24;91.66
77017;BME280;65949;53.132;17.930;2023-08-06T11:29:53;99067.48;;;19.25;91.88
77017;BME280;65949;53.132;17.930;2023-08-06T11:32:20;99061.32;;;19.27;91.97
77017;BME280;65949;53.132;17.930;2023-08-06T11:34:46;99056.23;;;19.28;91.79
77017;BME280;65949;53.132;17.930;2023-08-06T11:37:13;99052.36;;;19.28;92.07
77017;BME280;65949;53.132;17.930;2023-08-06T11:39:47;99040.13;;;19.24;92.35
77017;BME280;65949;53.132;17.930;2023-08-06T11:42:16;99027.59;;;19.17;92.63
77017;BME280;65949;53.132;17.930;2023-08-06T11:44:43;99019.38;;;19.18;92.60
77017;BME280;65949;53.132;17.930;2023-08-06T11:47:15;99015.34;;;19.20;92.53
77017;BME280;65949;53.132;17.930;2023-08-06T11:49:48;99015.42;;;19.20;92.81
77017;BME280;65949;53.132;17.930;2023-08-06T11:52:20;99012.23;;;19.18;92.68
77017;BME280;65949;53.132;17.930;2023-08-06T11:55:08;99012.92;;;19.16;92.87
77017;BME280;65949;53.132;17.930;2023-08-06T11:57:44;99013.98;;;19.16;93.07
77017;BME280;65949;53.132;17.930;2023-08-06T12:00:12;99007.60;;;19.14;93.20
77017;BME280;65949;53.132;17.930;2023-08-06T12:02:44;99006.48;;;19.14;93.20
77017;BME280;65949;53.132;17.930;2023-08-06T12:07:48;98998.23;;;19.17;93.44
77017;BME280;65949;53.132;17.930;2023-08-06T12:10:16;98988.42;;;19.18;93.55
77017;BME280;65949;53.132;17.930;2023-08-06T12:12:43;98975.61;;;19.21;93.54
77017;BME280;65949;53.132;17.930;2023-08-06T12:15:10;98980.48;;;19.20;93.72
77017;BME280;65949;53.132;17.930;2023-08-06T12:17:36;98988.01;;;19.16;93.65
77017;BME280;65949;53.132;17.930;2023-08-06T12:20:05;98995.09;;;19.15;93.72
77017;BME280;65949;53.132;17.930;2023-08-06T12:22:33;98995.88;;;19.13;93.57
77017;BME280;65949;53.132;17.930;2023-08-06T12:25:10;98998.74;;;19.13;93.64
77017;BME280;65949;53.132;17.930;2023-08-06T12:27:42;98998.48;;;19.10;93.70
77017;BME280;65949;53.132;17.930;2023-08-06T12:30:10;98993.08;;;19.09;93.82
77017;BME280;65949;53.132;17.930;2023-08-06T12:32:37;98992.86;;;19.10;93.89
77017;BME280;65949;53.132;17.930;2023-08-06T12:35:05;98986.64;;;19.11;93.87
77017;BME280;65949;53.132;17.930;2023-08-06T12:37:34;98990.23;;;19.13;94.14
77017;BME280;65949;53.132;17.930;2023-08-06T12:40:01;98985.55;;;19.13;94.33
77017;BME280;65949;53.132;17.930;2023-08-06T12:42:27;98981.47;;;19.13;94.31
77017;BME280;65949;53.132;17.930;2023-08-06T12:44:54;98975.73;;;19.12;94.45
77017;BME280;65949;53.132;17.930;2023-08-06T12:47:20;98962.90;;;19.12;94.88
77017;BME280;65949;53.132;17.930;2023-08-06T12:49:47;98947.27;;;19.12;95.19
77017;BME280;65949;53.132;17.930;2023-08-06T12:52:14;98949.08;;;19.12;95.21
77017;BME280;65949;53.132;17.930;2023-08-06T12:54:42;98945.67;;;19.11;95.15
77017;BME280;65949;53.132;17.930;2023-08-06T12:57:08;98940.67;;;19.15;95.35